Time;durP1;ratioP1;P1;durP2;ratioP2;P2;SDS_P1;SDS_P2;PMS_P1;PMS_P2;Temp;Humidity;BMP_temperature;BMP_pressure;BME280_temperature;BME280_humidity;BME280_pressure;Samples;Min_cycle;Max_cycle;Signal;HPM_P1;HPM_P2
2022/03/25 00:01:12;;;;;;;92.57;50.67;;;9.80;99.90;;;;;;5053642;28;20512;-46
2022/03/25 00:03:38;;;;;;;89.22;52.17;;;9.90;99.90;;;;;;5053742;28;20025;-46
2022/03/25 00:06:04;;;;;;;89.88;51.00;;;9.90;99.90;;;;;;5053559;28;20108;-46
2022/03/25 00:08:31;;;;;;;90.63;50.60;;;9.80;99.90;;;;;;5052153;28;20485;-46
2022/03/25 00:10:57;;;;;;;88.20;51.10;;;9.70;99.90;;;;;;5052182;28;20021;-46
2022/03/25 00:13:23;;;;;;;91.10;51.72;;;9.80;99.90;;;;;;5053435;28;20313;-45
2022/03/25 00:15:48;;;;;;;97.53;52.83;;;9.80;99.90;;;;;;5053478;28;20036;-46
2022/03/25 00:18:14;;;;;;;84.00;50.92;;;9.80;99.90;;;;;;5053674;28;20032;-45
2022/03/25 00:20:40;;;;;;;97.57;51.47;;;9.70;99.90;;;;;;5035480;28;20032;-46
2022/03/25 00:23:06;;;;;;;86.30;51.08;;;9.70;99.90;;;;;;5053352;28;20032;-46
2022/03/25 00:25:31;;;;;;;90.97;50.63;;;9.70;99.90;;;;;;5052994;28;20021;-46
2022/03/25 00:27:57;;;;;;;92.80;51.28;;;9.70;99.90;;;;;;5052969;28;20425;-46
2022/03/25 00:30:23;;;;;;;88.28;51.83;;;9.70;99.90;;;;;;5052958;28;20017;-46
2022/03/25 00:32:48;;;;;;;92.75;52.35;;;9.70;99.90;;;;;;5053281;28;20025;-46
2022/03/25 00:35:16;;;;;;;89.45;52.20;;;9.70;99.90;;;;;;5053099;28;20056;-46
2022/03/25 00:37:42;;;;;;;92.40;52.85;;;9.70;99.90;;;;;;5052880;28;20021;-54
2022/03/25 00:40:08;;;;;;;93.40;51.60;;;9.70;99.90;;;;;;5052984;28;20503;-45
2022/03/25 00:42:35;;;;;;;93.63;51.17;;;9.70;99.90;;;;;;5052891;28;20108;-46
2022/03/25 00:45:05;;;;;;;92.90;52.47;;;9.70;99.90;;;;;;5052596;28;20029;-46
2022/03/25 00:47:30;;;;;;;92.45;52.40;;;9.70;99.90;;;;;;5052991;28;20421;-46
2022/03/25 00:49:56;;;;;;;94.30;52.67;;;9.70;99.90;;;;;;5052805;28;20021;-46
2022/03/25 00:52:22;;;;;;;91.63;53.42;;;9.60;99.90;;;;;;5052798;28;20366;-46
2022/03/25 00:54:50;;;;;;;98.25;53.85;;;9.60;99.90;;;;;;5052648;28;20021;-46
2022/03/25 00:57:19;;;;;;;104.32;55.13;;;9.70;99.90;;;;;;5052724;28;20037;-46
2022/03/25 00:59:45;;;;;;;95.10;52.53;;;9.70;99.90;;;;;;5053098;28;20100;-46
2022/03/25 01:02:11;;;;;;;90.43;51.92;;;9.60;99.90;;;;;;5052453;28;20422;-46
2022/03/25 01:04:37;;;;;;;97.90;53.55;;;9.60;99.90;;;;;;5052981;28;20029;-46
2022/03/25 01:07:02;;;;;;;94.97;54.00;;;9.60;99.90;;;;;;5052507;28;20029;-46
2022/03/25 01:09:28;;;;;;;92.93;53.38;;;9.60;99.90;;;;;;5051731;28;20025;-46
2022/03/25 01:11:54;;;;;;;96.13;55.45;;;9.60;99.90;;;;;;5052566;28;20481;-46
2022/03/25 01:14:20;;;;;;;92.82;53.45;;;9.60;99.90;;;;;;5052229;28;20318;-44
2022/03/25 01:16:46;;;;;;;94.97;53.50;;;9.50;99.90;;;;;;5052058;28;20163;-44
2022/03/25 01:19:11;;;;;;;98.43;54.78;;;9.50;99.90;;;;;;5034379;28;20107;-44
2022/03/25 01:21:37;;;;;;;97.05;53.80;;;9.40;99.90;;;;;;5052061;28;20095;-44
2022/03/25 01:24:04;;;;;;;92.60;53.78;;;9.40;99.90;;;;;;5052083;28;20021;-44
2022/03/25 01:26:31;;;;;;;93.13;53.83;;;9.40;99.90;;;;;;5051783;28;20036;-44
2022/03/25 01:28:57;;;;;;;104.13;55.03;;;9.40;99.90;;;;;;5052300;28;20029;-44
2022/03/25 01:31:23;;;;;;;100.00;56.13;;;9.30;99.90;;;;;;5052059;28;20021;-44
2022/03/25 01:33:48;;;;;;;98.28;55.95;;;9.20;99.90;;;;;;5052209;28;20509;-44
2022/03/25 01:36:15;;;;;;;98.20;55.90;;;9.30;99.90;;;;;;5033866;28;20063;-43
2022/03/25 01:38:42;;;;;;;102.90;56.70;;;9.20;99.90;;;;;;5052047;28;20110;-43
2022/03/25 01:41:07;;;;;;;94.88;55.05;;;9.20;99.90;;;;;;5051860;28;20086;-43
2022/03/25 01:43:33;;;;;;;105.60;57.00;;;9.30;99.90;;;;;;5052008;28;20079;-44
2022/03/25 01:46:00;;;;;;;96.72;55.83;;;9.30;99.90;;;;;;5051730;28;20027;-44
2022/03/25 01:48:26;;;;;;;99.55;57.22;;;9.30;99.90;;;;;;5051455;28;20051;-44
2022/03/25 01:50:52;;;;;;;102.97;57.25;;;9.30;99.90;;;;;;5051921;28;20079;-44
2022/03/25 01:53:26;;;;;;;104.22;55.00;;;9.30;99.90;;;;;;5051612;28;20453;-43
2022/03/25 01:55:57;;;;;;;114.00;56.50;;;9.20;99.90;;;;;;5050793;28;20033;-44
2022/03/25 01:58:24;;;;;;;102.00;58.58;;;9.10;99.90;;;;;;5051363;28;20075;-44
2022/03/25 02:00:51;;;;;;;107.80;58.67;;;9.20;99.90;;;;;;5050339;28;20075;-44
2022/03/25 02:03:17;;;;;;;105.53;59.05;;;9.10;99.90;;;;;;5050899;28;20194;-44
2022/03/25 02:05:44;;;;;;;108.03;56.88;;;9.10;99.90;;;;;;5051085;28;20021;-44
2022/03/25 02:08:10;;;;;;;107.90;57.15;;;9.10;99.90;;;;;;5050845;28;20041;-44
2022/03/25 02:10:38;;;;;;;104.60;57.65;;;9.10;99.90;;;;;;5051362;28;20035;-44
2022/03/25 02:13:04;;;;;;;100.40;57.17;;;9.00;99.90;;;;;;5051459;28;20053;-44
2022/03/25 02:15:41;;;;;;;100.40;57.28;;;8.90;99.90;;;;;;5051050;28;20414;-44
2022/03/25 02:18:10;;;;;;;103.22;55.75;;;8.90;99.90;;;;;;5050723;28;20029;-43
2022/03/25 02:20:37;;;;;;;105.32;56.78;;;9.00;99.90;;;;;;5050595;28;20405;-44
2022/03/25 02:23:04;;;;;;;108.13;58.78;;;9.00;99.90;;;;;;5050558;28;20013;-43
2022/03/25 02:25:30;;;;;;;103.45;58.30;;;9.10;99.90;;;;;;5050793;28;20017;-46
2022/03/25 02:28:00;;;;;;;103.43;58.88;;;9.10;99.90;;;;;;5051241;28;20070;-44
2022/03/25 02:30:27;;;;;;;112.95;60.05;;;9.10;99.90;;;;;;5032746;28;20356;-44
2022/03/25 02:32:53;;;;;;;107.63;59.80;;;9.10;99.90;;;;;;5050533;28;20080;-44
2022/03/25 02:35:19;;;;;;;110.28;60.15;;;9.10;99.90;;;;;;5050583;28;20382;-44
2022/03/25 02:37:45;;;;;;;109.13;59.15;;;9.10;99.90;;;;;;5050772;28;20029;-44
2022/03/25 02:40:11;;;;;;;113.53;59.83;;;9.10;99.90;;;;;;5050580;28;20079;-44
2022/03/25 02:42:37;;;;;;;106.43;59.83;;;9.10;99.90;;;;;;5050543;28;20478;-44
2022/03/25 02:45:03;;;;;;;110.95;60.22;;;9.10;99.90;;;;;;5050553;28;20028;-44
2022/03/25 02:47:29;;;;;;;114.20;59.53;;;9.10;99.90;;;;;;5050180;28;20077;-44
2022/03/25 02:49:55;;;;;;;108.93;59.28;;;9.20;99.90;;;;;;5050588;28;20036;-44
2022/03/25 02:52:20;;;;;;;107.50;58.13;;;9.10;99.90;;;;;;5051498;28;20116;-44
2022/03/25 02:54:46;;;;;;;111.57;59.40;;;9.10;99.90;;;;;;5032660;28;20108;-44
2022/03/25 02:57:11;;;;;;;108.50;57.65;;;9.10;99.90;;;;;;5050172;28;20382;-44
2022/03/25 02:59:37;;;;;;;106.60;58.03;;;9.10;99.90;;;;;;5049198;28;20116;-44
2022/03/25 03:02:03;;;;;;;106.93;58.50;;;9.10;99.90;;;;;;5050487;28;20029;-45
2022/03/25 03:04:29;;;;;;;106.20;58.92;;;9.10;99.90;;;;;;5050158;28;20074;-43
2022/03/25 03:06:55;;;;;;;107.30;56.95;;;9.10;99.90;;;;;;5050143;28;20064;-43
2022/03/25 03:09:21;;;;;;;106.75;58.55;;;9.10;99.90;;;;;;5032404;28;20028;-43
2022/03/25 03:11:46;;;;;;;106.05;55.80;;;9.10;99.90;;;;;;5050556;28;20021;-43
2022/03/25 03:14:13;;;;;;;105.10;58.38;;;9.10;99.90;;;;;;5049924;28;20025;-43
2022/03/25 03:16:39;;;;;;;102.75;57.55;;;9.10;99.90;;;;;;5049956;28;20028;-43
2022/03/25 03:19:05;;;;;;;106.10;56.22;;;9.10;99.90;;;;;;5050355;28;20017;-43
2022/03/25 03:21:31;;;;;;;109.00;58.08;;;9.10;99.90;;;;;;5050324;28;20362;-43
2022/03/25 03:23:57;;;;;;;109.85;58.03;;;9.10;99.90;;;;;;5050001;28;20092;-43
2022/03/25 03:26:23;;;;;;;106.75;59.08;;;9.10;99.90;;;;;;5049807;28;20028;-43
2022/03/25 03:28:49;;;;;;;103.88;58.25;;;9.10;99.90;;;;;;5048634;28;20024;-44
2022/03/25 03:31:16;;;;;;;115.10;60.05;;;9.00;99.90;;;;;;5049642;28;20474;-44
2022/03/25 03:33:42;;;;;;;102.68;55.58;;;9.00;99.90;;;;;;5048012;28;20075;-44
2022/03/25 03:36:07;;;;;;;102.82;56.40;;;9.00;99.90;;;;;;5050161;28;20420;-44
2022/03/25 03:38:34;;;;;;;118.43;59.08;;;8.90;99.90;;;;;;5050120;28;20111;-45
2022/03/25 03:41:00;;;;;;;110.30;57.88;;;9.00;99.90;;;;;;5050056;28;20017;-45
2022/03/25 03:43:25;;;;;;;110.03;57.95;;;9.00;99.90;;;;;;5049971;28;20024;-45
2022/03/25 03:45:51;;;;;;;110.25;58.90;;;8.90;99.90;;;;;;5049936;28;20505;-45
2022/03/25 03:48:17;;;;;;;108.20;57.88;;;8.90;99.90;;;;;;5050065;28;20060;-45
2022/03/25 03:50:42;;;;;;;106.97;57.33;;;8.90;99.90;;;;;;5049672;28;20041;-45
2022/03/25 03:53:08;;;;;;;114.95;57.78;;;8.80;99.90;;;;;;5050038;28;20096;-46
2022/03/25 03:55:34;;;;;;;114.78;59.03;;;8.80;99.90;;;;;;5049231;28;20090;-45
2022/03/25 03:57:59;;;;;;;110.13;58.92;;;8.80;99.90;;;;;;5050040;28;20082;-45
2022/03/25 04:00:25;;;;;;;110.50;58.38;;;8.80;99.90;;;;;;5049768;28;20385;-45
2022/03/25 04:02:51;;;;;;;106.43;57.63;;;8.70;99.90;;;;;;5049639;28;20025;-45
2022/03/25 04:05:16;;;;;;;104.75;56.42;;;8.70;99.90;;;;;;5049896;28;20017;-45
2022/03/25 04:07:43;;;;;;;110.15;57.33;;;8.70;99.90;;;;;;5049720;28;20029;-45
2022/03/25 04:10:09;;;;;;;113.40;58.70;;;8.70;99.90;;;;;;5049628;28;20029;-45
2022/03/25 04:12:35;;;;;;;108.00;57.50;;;8.70;99.90;;;;;;5031807;28;20047;-45
2022/03/25 04:15:01;;;;;;;107.93;58.45;;;8.70;99.90;;;;;;5049491;28;20033;-45
2022/03/25 04:17:27;;;;;;;107.75;58.75;;;8.60;99.90;;;;;;5049590;28;20482;-45
2022/03/25 04:19:53;;;;;;;112.22;58.47;;;8.60;99.90;;;;;;5049070;28;20025;-45
2022/03/25 04:22:18;;;;;;;111.45;58.13;;;8.60;99.90;;;;;;5049243;28;20018;-45
2022/03/25 04:24:44;;;;;;;114.47;58.05;;;8.60;99.90;;;;;;5049397;28;20482;-45
2022/03/25 04:27:10;;;;;;;108.65;57.95;;;8.60;99.90;;;;;;5049345;28;20051;-45
2022/03/25 04:29:36;;;;;;;111.47;58.92;;;8.60;99.90;;;;;;5049525;28;20025;-45
2022/03/25 04:32:01;;;;;;;110.40;59.97;;;8.50;99.90;;;;;;5048693;28;20029;-45
2022/03/25 04:34:27;;;;;;;112.03;59.05;;;8.50;99.90;;;;;;5049174;28;20028;-44
2022/03/25 04:36:53;;;;;;;117.75;58.78;;;8.50;99.90;;;;;;5049249;28;20029;-44
2022/03/25 04:39:19;;;;;;;113.55;59.28;;;8.50;99.90;;;;;;5049492;28;20039;-44
2022/03/25 04:41:44;;;;;;;116.70;60.47;;;8.50;99.90;;;;;;5049410;28;20108;-44
2022/03/25 04:44:10;;;;;;;115.68;59.10;;;8.50;99.90;;;;;;5049906;28;20052;-44
2022/03/25 04:46:35;;;;;;;112.80;60.28;;;8.50;99.90;;;;;;5052664;28;20636;-44
2022/03/25 04:49:01;;;;;;;110.53;59.38;;;8.40;99.90;;;;;;5053231;28;20031;-44
2022/03/25 04:51:27;;;;;;;113.60;59.55;;;8.30;99.90;;;;;;5052708;28;20116;-47
2022/03/25 04:53:53;;;;;;;111.75;56.97;;;8.30;99.90;;;;;;5053187;28;20108;-44
2022/03/25 04:56:19;;;;;;;109.93;58.65;;;8.30;99.90;;;;;;5052221;28;20483;-44
2022/03/25 04:58:44;;;;;;;111.20;58.72;;;8.40;99.90;;;;;;5052263;28;20113;-44
2022/03/25 05:01:10;;;;;;;108.60;56.33;;;8.30;99.90;;;;;;5052500;28;20057;-44
2022/03/25 05:03:36;;;;;;;105.60;56.10;;;8.40;99.90;;;;;;5052498;28;20020;-46
2022/03/25 05:06:01;;;;;;;106.22;56.80;;;8.30;99.90;;;;;;5052759;28;20086;-45
2022/03/25 05:08:27;;;;;;;108.63;57.97;;;8.20;99.90;;;;;;5052851;28;20032;-45
2022/03/25 05:10:53;;;;;;;110.00;56.83;;;8.20;99.90;;;;;;5051466;28;20112;-46
2022/03/25 05:13:19;;;;;;;113.53;57.42;;;8.00;99.90;;;;;;5052625;28;20112;-45
2022/03/25 05:15:45;;;;;;;105.95;57.88;;;8.00;99.90;;;;;;5052187;28;20445;-46
2022/03/25 05:18:10;;;;;;;110.43;59.03;;;7.90;99.90;;;;;;5050709;28;20423;-43
2022/03/25 05:20:37;;;;;;;113.38;60.72;;;7.80;99.90;;;;;;5051952;28;20029;-44
2022/03/25 05:23:03;;;;;;;111.65;61.83;;;7.70;99.90;;;;;;5052111;28;20385;-43
2022/03/25 05:25:28;;;;;;;113.45;59.67;;;7.80;99.90;;;;;;5051736;28;20021;-44
2022/03/25 05:27:57;;;;;;;115.75;59.25;;;7.70;99.90;;;;;;5052059;28;20035;-44
2022/03/25 05:30:31;;;;;;;114.93;60.40;;;7.60;99.90;;;;;;5052128;28;20025;-44
2022/03/25 05:32:58;;;;;;;118.82;60.80;;;7.60;99.90;;;;;;5051538;28;20040;-44
2022/03/25 05:35:25;;;;;;;115.00;59.20;;;7.70;99.90;;;;;;5052081;28;20104;-44
2022/03/25 05:37:51;;;;;;;111.57;59.33;;;7.70;99.90;;;;;;5051723;28;20367;-44
2022/03/25 05:40:20;;;;;;;119.10;59.83;;;7.80;99.90;;;;;;5051786;28;20021;-44
2022/03/25 05:42:46;;;;;;;114.82;58.85;;;7.90;99.90;;;;;;5051662;28;20024;-46
2022/03/25 05:45:12;;;;;;;111.05;59.10;;;7.90;99.90;;;;;;5051922;28;20017;-44
2022/03/25 05:47:40;;;;;;;108.78;59.42;;;7.90;99.90;;;;;;5051460;28;20049;-44
2022/03/25 05:50:07;;;;;;;110.03;60.22;;;7.90;99.90;;;;;;5052018;28;20101;-44
2022/03/25 05:52:33;;;;;;;112.18;58.95;;;7.80;99.90;;;;;;5051703;28;20486;-45
2022/03/25 05:54:59;;;;;;;119.50;59.38;;;7.80;99.90;;;;;;5051078;28;20048;-45
2022/03/25 05:57:24;;;;;;;117.97;60.70;;;7.80;99.90;;;;;;5051557;28;20025;-46
2022/03/25 05:59:50;;;;;;;113.22;59.50;;;7.90;99.90;;;;;;5051543;28;20489;-45
2022/03/25 06:02:16;;;;;;;114.90;59.63;;;7.90;99.90;;;;;;5051251;28;20028;-45
2022/03/25 06:04:42;;;;;;;112.40;60.53;;;7.90;99.90;;;;;;5051535;28;20021;-46
2022/03/25 06:07:07;;;;;;;114.97;58.20;;;7.80;99.90;;;;;;5051574;28;20032;-45
2022/03/25 06:09:33;;;;;;;107.28;57.97;;;7.90;99.90;;;;;;5033462;28;20031;-45
2022/03/25 06:11:59;;;;;;;117.80;59.60;;;7.90;99.90;;;;;;5051455;28;20031;-46
2022/03/25 06:14:25;;;;;;;110.13;58.00;;;8.00;99.90;;;;;;5051082;28;20394;-45
2022/03/25 06:16:51;;;;;;;104.82;57.42;;;8.00;99.90;;;;;;5051037;28;20013;-45
2022/03/25 06:19:17;;;;;;;112.45;57.63;;;8.20;99.90;;;;;;5051140;28;20025;-45
2022/03/25 06:21:43;;;;;;;126.20;59.47;;;8.20;99.90;;;;;;5051387;28;20025;-45
2022/03/25 06:24:09;;;;;;;106.72;57.13;;;8.20;99.90;;;;;;5051085;28;20032;-45
2022/03/25 06:26:35;;;;;;;117.45;55.55;;;8.30;99.90;;;;;;5050569;28;20024;-45
2022/03/25 06:29:02;;;;;;;107.70;57.30;;;8.30;99.90;;;;;;5050693;28;20025;-45
2022/03/25 06:31:27;;;;;;;105.47;54.50;;;8.40;99.90;;;;;;5051031;28;20070;-45
2022/03/25 06:33:53;;;;;;;100.13;53.67;;;8.40;99.90;;;;;;5051401;28;20025;-46
2022/03/25 06:36:19;;;;;;;103.25;53.75;;;8.40;99.90;;;;;;5050612;28;20478;-45
2022/03/25 06:38:44;;;;;;;104.35;54.15;;;8.50;99.90;;;;;;5050963;28;20021;-46
2022/03/25 06:41:11;;;;;;;99.35;53.53;;;8.60;99.90;;;;;;5051105;28;20032;-44
2022/03/25 06:43:37;;;;;;;97.68;53.60;;;8.50;99.90;;;;;;5050626;28;20102;-46
2022/03/25 06:46:04;;;;;;;98.93;52.72;;;8.60;99.90;;;;;;5050399;28;20025;-45
2022/03/25 06:48:31;;;;;;;108.43;54.33;;;8.60;99.90;;;;;;5050392;28;20541;-45
2022/03/25 06:50:59;;;;;;;95.15;51.45;;;8.60;99.90;;;;;;5050632;28;20126;-46
2022/03/25 06:53:25;;;;;;;98.13;51.55;;;8.70;99.90;;;;;;5049659;28;20025;-46
2022/03/25 06:55:51;;;;;;;94.88;50.10;;;8.70;99.90;;;;;;5049165;28;20025;-46
2022/03/25 06:58:18;;;;;;;102.43;51.55;;;8.80;99.90;;;;;;5048779;28;20115;-46
2022/03/25 07:00:44;;;;;;;92.75;50.22;;;8.80;99.90;;;;;;5050031;28;20021;-46
2022/03/25 07:03:11;;;;;;;93.43;51.08;;;8.90;99.90;;;;;;5049707;28;20032;-46
2022/03/25 07:05:37;;;;;;;92.50;50.00;;;9.00;99.90;;;;;;5030340;28;20386;-46
2022/03/25 07:08:03;;;;;;;96.60;48.10;;;9.20;99.90;;;;;;5027639;28;20029;-46
2022/03/25 07:10:29;;;;;;;89.80;46.22;;;9.30;99.90;;;;;;5026823;28;20036;-46
2022/03/25 07:12:55;;;;;;;86.85;47.20;;;9.50;99.90;;;;;;5028952;28;20108;-46
2022/03/25 07:15:22;;;;;;;88.32;46.70;;;9.50;99.90;;;;;;5040363;28;20033;-46
2022/03/25 07:17:48;;;;;;;88.60;46.97;;;9.60;99.90;;;;;;5023733;28;20804;-45
2022/03/25 07:20:15;;;;;;;83.05;45.83;;;9.60;99.90;;;;;;5039601;28;20032;-46
2022/03/25 08:39:28;;;;;;;60.42;43.00;;;18.90;84.40;;;;;;5126219;27;20399;-59
2022/03/25 08:41:54;;;;;;;60.58;42.15;;;19.70;79.30;;;;;;5113625;28;20380;-59
2022/03/25 08:44:19;;;;;;;66.03;43.28;;;20.40;78.10;;;;;;5117213;28;20116;-59
2022/03/25 08:46:45;;;;;;;65.07;44.50;;;20.50;74.30;;;;;;5115708;28;20019;-59
2022/03/25 08:49:11;;;;;;;59.08;42.90;;;20.00;75.50;;;;;;5059558;28;20037;-60
2022/03/25 08:51:37;;;;;;;66.45;41.13;;;20.00;75.70;;;;;;5057585;28;20035;-60
2022/03/25 08:54:03;;;;;;;62.17;41.17;;;19.80;75.80;;;;;;5058628;28;20053;-60
2022/03/25 08:56:28;;;;;;;62.88;41.40;;;19.30;76.80;;;;;;5064974;28;20473;-60
2022/03/25 08:58:58;;;;;;;67.13;39.75;;;19.20;77.00;;;;;;5073064;28;20413;-60
2022/03/25 09:01:24;;;;;;;61.90;39.83;;;19.50;77.70;;;;;;5066926;28;20062;-60
2022/03/25 09:03:50;;;;;;;64.00;40.45;;;19.20;76.30;;;;;;5073116;28;20044;-60
2022/03/25 09:06:15;;;;;;;60.40;40.40;;;19.30;77.10;;;;;;5058789;28;20040;-60
2022/03/25 09:08:41;;;;;;;64.22;39.17;;;19.40;76.30;;;;;;5064635;28;20045;-60
2022/03/25 09:11:09;;;;;;;57.15;38.28;;;20.10;75.00;;;;;;5058475;28;20477;-60
2022/03/25 09:13:35;;;;;;;61.75;38.63;;;19.50;75.20;;;;;;5057790;28;20059;-60
2022/03/25 09:16:00;;;;;;;60.58;36.63;;;19.40;76.30;;;;;;5066558;28;20388;-60
2022/03/25 09:18:26;;;;;;;54.97;36.10;;;19.50;74.50;;;;;;5067189;28;20028;-60
2022/03/25 09:20:52;;;;;;;53.17;34.63;;;19.50;73.90;;;;;;5079401;28;20032;-60
2022/03/25 09:23:17;;;;;;;67.20;35.13;;;19.90;73.10;;;;;;5067770;28;20444;-60
2022/03/25 09:25:43;;;;;;;54.53;34.50;;;20.60;70.80;;;;;;5066002;28;20040;-60
2022/03/25 09:28:09;;;;;;;58.92;36.20;;;21.10;68.50;;;;;;5060683;28;20033;-60
2022/03/25 09:30:35;;;;;;;52.13;33.53;;;21.40;68.40;;;;;;5058581;28;20032;-60
2022/03/25 09:33:01;;;;;;;49.05;32.47;;;21.50;67.80;;;;;;5060298;28;20017;-60
2022/03/25 09:35:26;;;;;;;50.03;30.02;;;22.00;64.50;;;;;;5065176;28;20044;-60
2022/03/25 09:37:52;;;;;;;40.63;27.90;;;22.50;61.20;;;;;;5054596;28;20053;-60
2022/03/25 09:40:21;;;;;;;42.65;28.17;;;22.60;59.60;;;;;;5042200;28;20398;-60
2022/03/25 09:42:48;;;;;;;41.75;28.65;;;22.90;57.50;;;;;;5052050;28;20029;-60
2022/03/25 09:45:17;;;;;;;42.75;28.98;;;22.40;58.60;;;;;;5049829;28;20109;-60
2022/03/25 09:47:44;;;;;;;45.75;30.73;;;22.20;59.20;;;;;;5051997;28;21198;-60
2022/03/25 09:50:13;;;;;;;40.35;27.52;;;22.00;60.10;;;;;;5068278;28;20032;-60
2022/03/25 09:52:41;;;;;;;40.88;28.02;;;21.90;59.40;;;;;;5052526;28;20036;-61
2022/03/25 09:55:07;;;;;;;44.15;28.35;;;22.20;58.50;;;;;;5050274;28;20029;-61
2022/03/25 09:57:33;;;;;;;41.10;28.83;;;22.00;57.60;;;;;;5044120;28;20041;-60
2022/03/25 09:59:58;;;;;;;39.05;27.55;;;21.40;58.20;;;;;;5042363;28;20032;-60
2022/03/25 10:02:24;;;;;;;35.97;26.23;;;21.50;59.00;;;;;;5039889;28;20445;-60
2022/03/25 10:04:51;;;;;;;45.65;27.85;;;21.80;57.90;;;;;;5039234;28;20033;-61
2022/03/25 10:07:28;;;;;;;41.78;28.20;;;22.30;56.60;;;;;;5040102;28;20119;-61
2022/03/25 10:10:16;;;;;;;45.60;25.70;;;21.80;57.20;;;;;;5055498;28;20033;-60
2022/03/25 10:12:45;;;;;;;38.33;24.00;;;21.50;56.10;;;;;;5040985;28;20033;-60
2022/03/25 10:15:30;;;;;;;38.55;25.38;;;21.70;56.10;;;;;;5040306;28;20096;-60
2022/03/25 10:18:04;;;;;;;36.80;24.83;;;21.70;55.80;;;;;;5042062;28;20052;-60
2022/03/25 10:20:43;;;;;;;36.58;21.90;;;21.80;55.50;;;;;;5036097;28;20040;-60
2022/03/25 10:23:13;;;;;;;38.80;23.67;;;21.30;55.10;;;;;;5042386;28;20082;-60
2022/03/25 10:25:49;;;;;;;42.38;24.85;;;21.70;55.30;;;;;;5057562;28;20090;-60
2022/03/25 10:28:23;;;;;;;42.55;24.88;;;21.40;54.90;;;;;;5040364;28;20112;-60
2022/03/25 10:30:51;;;;;;;35.92;22.65;;;22.00;55.30;;;;;;5041885;28;20040;-61
2022/03/25 10:33:23;;;;;;;38.47;21.05;;;22.60;53.40;;;;;;5038344;28;20353;-61
2022/03/25 10:36:00;;;;;;;33.58;21.40;;;23.00;52.30;;;;;;5041444;28;20272;-60
2022/03/25 10:38:40;;;;;;;38.92;22.42;;;23.00;52.10;;;;;;5045190;28;20056;-60
2022/03/25 10:41:06;;;;;;;33.78;21.73;;;23.30;52.10;;;;;;5042122;28;20263;-60
2022/03/25 10:43:32;;;;;;;40.55;22.33;;;23.00;50.90;;;;;;5068936;28;20514;-60
2022/03/25 10:45:58;;;;;;;34.20;22.70;;;22.50;51.90;;;;;;5043276;28;20556;-61
2022/03/25 10:48:27;;;;;;;37.58;21.40;;;22.30;52.00;;;;;;5042898;28;20477;-60
2022/03/25 10:51:08;;;;;;;39.72;22.70;;;22.10;51.90;;;;;;5049076;28;20082;-61
2022/03/25 10:53:36;;;;;;;35.67;22.30;;;22.70;51.70;;;;;;5054324;28;20250;-61
2022/03/25 10:56:07;;;;;;;40.00;23.92;;;22.40;52.50;;;;;;5049537;28;20448;-61
2022/03/25 10:58:34;;;;;;;38.42;21.60;;;23.20;51.80;;;;;;5045133;28;20033;-60
2022/03/25 11:01:00;;;;;;;30.15;20.48;;;23.50;50.60;;;;;;5052300;28;20040;-60
2022/03/25 11:03:27;;;;;;;30.38;18.70;;;23.80;50.00;;;;;;5042223;28;20040;-60
2022/03/25 11:05:53;;;;;;;28.02;15.57;;;23.70;48.30;;;;;;5040775;28;20096;-60
2022/03/25 11:08:19;;;;;;;23.38;14.40;;;23.90;48.00;;;;;;5041709;28;20033;-60
2022/03/25 11:10:46;;;;;;;26.67;16.33;;;23.80;46.70;;;;;;5041605;28;20523;-61
2022/03/25 11:13:11;;;;;;;27.45;16.73;;;23.60;48.10;;;;;;5038318;28;20025;-60
2022/03/25 11:15:38;;;;;;;23.95;13.40;;;23.80;47.00;;;;;;5039647;28;20021;-61
2022/03/25 11:18:04;;;;;;;19.38;12.48;;;23.60;46.20;;;;;;5042716;28;20453;-60
2022/03/25 11:20:30;;;;;;;24.40;14.95;;;23.40;45.20;;;;;;5041362;28;20120;-60
2022/03/25 11:23:11;;;;;;;34.58;15.88;;;23.80;45.10;;;;;;5042084;28;20421;-60
2022/03/25 11:25:46;;;;;;;34.72;16.08;;;24.00;45.80;;;;;;5036867;28;20542;-61
2022/03/25 11:28:25;;;;;;;21.90;12.20;;;24.60;46.30;;;;;;5040216;28;20079;-61
2022/03/25 11:31:00;;;;;;;22.55;12.27;;;25.30;43.60;;;;;;5035533;28;20568;-61
2022/03/25 11:33:25;;;;;;;25.70;13.00;;;25.20;42.20;;;;;;5038836;28;20080;-61
2022/03/25 11:36:15;;;;;;;23.67;11.65;;;24.80;42.90;;;;;;5042852;28;20279;-62
2022/03/25 11:38:42;;;;;;;25.13;10.80;;;25.10;41.80;;;;;;5056823;28;20574;-62
2022/03/25 11:41:25;;;;;;;36.72;14.48;;;25.40;42.00;;;;;;5040309;28;20453;-61
2022/03/25 11:44:15;;;;;;;26.60;14.25;;;25.50;42.20;;;;;;5042480;28;20116;-61
2022/03/25 11:46:59;;;;;;;37.42;14.05;;;25.90;42.90;;;;;;5041355;28;20444;-61
2022/03/25 11:49:32;;;;;;;27.73;13.55;;;25.20;42.30;;;;;;5044184;28;20386;-61
2022/03/25 11:52:28;;;;;;;26.35;13.77;;;25.40;43.10;;;;;;5040077;28;20021;-61
2022/03/25 11:54:56;;;;;;;28.45;14.95;;;25.50;42.30;;;;;;5038483;28;20078;-61
2022/03/25 11:57:24;;;;;;;32.35;14.88;;;25.00;42.60;;;;;;5038487;28;20236;-61
2022/03/25 11:59:52;;;;;;;27.27;16.02;;;24.90;42.40;;;;;;5041162;28;20375;-60
2022/03/25 12:02:27;;;;;;;32.90;16.15;;;25.10;42.70;;;;;;5040107;28;20132;-61
2022/03/25 12:04:53;;;;;;;34.58;13.52;;;25.60;43.30;;;;;;5041409;28;20053;-62
2022/03/25 12:07:19;;;;;;;27.17;15.43;;;26.00;41.60;;;;;;5042078;28;20106;-61
2022/03/25 12:09:46;;;;;;;28.00;15.25;;;25.40;41.30;;;;;;5042667;28;20036;-60
2022/03/25 12:12:12;;;;;;;33.75;15.90;;;24.80;42.60;;;;;;5042137;28;20036;-58
2022/03/25 12:15:04;;;;;;;21.30;14.18;;;24.90;43.10;;;;;;5034260;28;20068;-59
2022/03/25 12:17:30;;;;;;;26.45;14.60;;;24.70;42.10;;;;;;5036527;28;20673;-57
2022/03/25 12:19:55;;;;;;;26.40;15.75;;;24.60;42.30;;;;;;5041357;28;20033;-57
2022/03/25 12:22:21;;;;;;;26.13;14.80;;;24.60;42.70;;;;;;5033666;28;20036;-57
2022/03/25 12:24:49;;;;;;;23.30;14.65;;;25.60;42.30;;;;;;5038852;28;20017;-60
2022/03/25 12:27:15;;;;;;;24.15;15.45;;;25.50;41.50;;;;;;5035229;28;20040;-60
2022/03/25 12:29:48;;;;;;;30.25;15.07;;;25.30;41.80;;;;;;5033884;28;20072;-60
2022/03/25 12:32:15;;;;;;;31.48;13.98;;;25.00;41.70;;;;;;5041003;28;20062;-60
2022/03/25 12:34:55;;;;;;;25.60;14.25;;;25.10;42.30;;;;;;5049933;28;20062;-60
2022/03/25 12:37:37;;;;;;;23.30;13.88;;;26.00;41.90;;;;;;5033175;28;20025;-60
2022/03/25 12:40:14;;;;;;;29.67;14.68;;;25.40;41.50;;;;;;5036779;28;20033;-60
2022/03/25 12:42:41;;;;;;;25.92;14.00;;;25.40;42.50;;;;;;5039053;28;20584;-60
2022/03/25 12:45:07;;;;;;;32.22;17.13;;;25.30;42.20;;;;;;5037004;28;20091;-60
2022/03/25 12:47:36;;;;;;;28.63;15.68;;;25.30;42.40;;;;;;5047361;28;20033;-60
2022/03/25 12:50:03;;;;;;;26.00;15.23;;;25.50;42.80;;;;;;5030657;28;20417;-59
2022/03/25 12:52:29;;;;;;;22.55;15.25;;;25.80;42.20;;;;;;5030226;28;20028;-59
2022/03/25 12:55:04;;;;;;;28.13;15.63;;;26.10;41.70;;;;;;5036053;28;20712;-59
2022/03/25 12:57:34;;;;;;;31.70;14.93;;;25.70;42.00;;;;;;5033260;28;20032;-59
2022/03/25 13:00:00;;;;;;;25.02;13.57;;;26.00;42.10;;;;;;5037678;28;20083;-60
2022/03/25 13:02:34;;;;;;;31.50;16.55;;;25.80;41.60;;;;;;5043669;28;20056;-59
2022/03/25 13:05:08;;;;;;;35.90;17.27;;;26.40;41.60;;;;;;5038429;28;20052;-59
2022/03/25 13:07:34;;;;;;;33.28;17.60;;;26.90;41.30;;;;;;5037599;28;20040;-60
2022/03/25 13:09:59;;;;;;;27.70;18.13;;;26.90;41.30;;;;;;5041556;28;20525;-60
2022/03/25 13:12:33;;;;;;;34.00;19.40;;;26.90;41.00;;;;;;5040004;28;20406;-60
2022/03/25 13:14:59;;;;;;;27.10;17.58;;;27.60;40.90;;;;;;5054556;28;20557;-60
2022/03/25 13:17:42;;;;;;;26.15;18.33;;;26.80;40.70;;;;;;5040686;28;20026;-60
2022/03/25 13:20:14;;;;;;;28.33;18.05;;;25.10;41.70;;;;;;5041122;28;20032;-60
2022/03/25 13:22:54;;;;;;;36.13;17.88;;;24.30;42.80;;;;;;5039569;28;20017;-59
2022/03/25 13:25:37;;;;;;;31.35;18.15;;;24.20;43.30;;;;;;5043113;28;20086;-59
2022/03/25 13:28:12;;;;;;;31.83;19.05;;;24.00;42.90;;;;;;5040530;28;20037;-59
2022/03/25 13:30:43;;;;;;;31.38;19.08;;;24.00;42.70;;;;;;5041767;28;20074;-59
2022/03/25 13:33:10;;;;;;;31.58;17.85;;;24.90;41.80;;;;;;5042060;28;20363;-59
2022/03/25 13:35:37;;;;;;;31.55;17.25;;;24.90;41.20;;;;;;5042370;28;20028;-59
2022/03/25 13:38:16;;;;;;;27.55;15.75;;;25.30;41.80;;;;;;5039863;28;20088;-60
2022/03/25 13:40:51;;;;;;;22.52;14.85;;;25.80;41.80;;;;;;5037892;28;20339;-60
2022/03/25 13:43:21;;;;;;;31.13;16.60;;;26.30;41.30;;;;;;5040843;28;20375;-60
2022/03/25 13:46:19;;;;;;;35.10;17.85;;;26.80;39.40;;;;;;5041653;28;20374;-60
2022/03/25 13:48:48;;;;;;;28.13;16.85;;;26.60;39.10;;;;;;5029418;28;20132;-60